createdAt,value
2022-08-03T00:02:14.739Z,1012.48
2022-08-03T00:07:50.396Z,1012.47
2022-08-03T00:13:25.731Z,1012.37
2022-08-03T00:19:01.146Z,1012.42
2022-08-03T00:24:36.537Z,1012.36
2022-08-03T00:27:20.994Z,1012.35
2022-08-03T00:35:50.594Z,1012.24
2022-08-03T00:38:35.680Z,1012.22
2022-08-03T00:44:10.942Z,1012.18
2022-08-03T00:46:56.491Z,1012.19
2022-08-03T00:52:32.314Z,1012.18
2022-08-03T00:55:17.866Z,1012.14
2022-08-03T01:00:53.169Z,1012.14
2022-08-03T01:06:28.497Z,1012.11
2022-08-03T01:09:13.961Z,1012.11
2022-08-03T01:14:49.207Z,1012.15
2022-08-03T01:17:36.853Z,1012.09
2022-08-03T01:23:12.102Z,1012.07
2022-08-03T01:28:47.340Z,1012.03
2022-08-03T01:34:22.626Z,1012.05
2022-08-03T01:37:07.083Z,1012.00
2022-08-03T01:42:42.709Z,1011.93
2022-08-03T01:48:18.069Z,1011.98
2022-08-03T01:51:03.627Z,1011.95
2022-08-03T01:56:38.916Z,1011.95
2022-08-03T02:02:15.941Z,1011.96
2022-08-03T02:07:58.474Z,1011.97
2022-08-03T02:10:45.829Z,1011.95
2022-08-03T02:19:11.870Z,1011.93
2022-08-03T02:24:49.367Z,1011.97
2022-08-03T02:27:39.474Z,1011.96
2022-08-03T02:33:20.601Z,1011.94
2022-08-03T02:38:55.851Z,1011.94
2022-08-03T02:44:31.955Z,1011.92
2022-08-03T02:47:16.419Z,1011.95
2022-08-03T02:52:51.690Z,1011.95
2022-08-03T02:58:27.012Z,1012.00
2022-08-03T03:04:02.291Z,1011.99
2022-08-03T03:06:46.965Z,1012.01
2022-08-03T03:12:23.641Z,1012.02
2022-08-03T03:20:50.341Z,1012.02
2022-08-03T03:26:26.718Z,1011.98
2022-08-03T03:29:11.207Z,1011.96
2022-08-03T03:34:46.515Z,1011.94
2022-08-03T03:40:25.839Z,1011.99
2022-08-03T03:46:01.796Z,1011.99
2022-08-03T03:48:46.410Z,1011.95
2022-08-03T03:54:22.328Z,1011.98
2022-08-03T03:57:10.049Z,1011.94
2022-08-03T04:02:48.461Z,1011.91
2022-08-03T04:08:31.772Z,1011.92
2022-08-03T04:14:07.212Z,1011.96
2022-08-03T04:16:51.654Z,1011.98
2022-08-03T04:22:27.889Z,1011.99
2022-08-03T04:28:08.030Z,1012.07
2022-08-03T04:33:47.377Z,1012.07
2022-08-03T04:39:22.662Z,1012.06
2022-08-03T04:45:01.335Z,1012.05
2022-08-03T04:47:47.591Z,1012.07
2022-08-03T04:53:23.260Z,1012.08
2022-08-03T04:58:58.590Z,1012.13
2022-08-03T05:04:33.835Z,1012.16
2022-08-03T05:07:24.163Z,1012.20
2022-08-03T05:13:02.563Z,1012.17
2022-08-03T05:18:38.108Z,1012.15
2022-08-03T05:24:13.446Z,1012.13
2022-08-03T05:29:49.234Z,1012.12
2022-08-03T05:36:01.981Z,1012.14
2022-08-03T05:41:23.526Z,1012.15
2022-08-03T05:46:53.818Z,1012.23
2022-08-03T05:52:29.077Z,1012.26
2022-08-03T05:58:04.683Z,1012.27
2022-08-03T06:03:40.190Z,1012.31
2022-08-03T06:09:15.495Z,1012.32
2022-08-03T06:14:50.917Z,1012.34
2022-08-03T06:17:37.225Z,1012.26
2022-08-03T06:23:16.237Z,1012.26
2022-08-03T06:28:54.207Z,1012.30
2022-08-03T06:34:35.071Z,1012.24
2022-08-03T06:37:23.681Z,1012.21
2022-08-03T06:42:59.908Z,1012.25
2022-08-03T06:48:35.437Z,1012.22
2022-08-03T06:57:01.557Z,1012.16
2022-08-03T07:02:36.813Z,1012.17
2022-08-03T07:08:14.166Z,1012.08
2022-08-03T07:13:49.388Z,1012.06
2022-08-03T07:22:15.746Z,1012.14
2022-08-03T07:25:01.313Z,1012.15
2022-08-03T07:27:48.879Z,1012.14
2022-08-03T07:33:30.193Z,1012.13
2022-08-03T07:39:16.558Z,1012.17
2022-08-03T07:44:49.734Z,1012.12
2022-08-03T07:47:36.083Z,1012.16
2022-08-03T07:53:11.754Z,1012.15
2022-08-03T07:58:47.039Z,1012.12
2022-08-03T08:04:22.342Z,1012.10
2022-08-03T08:07:06.788Z,1012.12
2022-08-03T08:12:42.783Z,1012.11
2022-08-03T08:18:18.060Z,1012.10
2022-08-03T08:23:57.017Z,1012.10
2022-08-03T08:26:42.405Z,1012.09
2022-08-03T08:35:09.525Z,1011.99
2022-08-03T08:37:54.137Z,1012.00
2022-08-03T08:43:29.447Z,1011.98
2022-08-03T08:49:05.299Z,1012.03
2022-08-03T08:54:40.704Z,1012.00
2022-08-03T08:57:42.000Z,1012.01
2022-08-03T09:06:00.428Z,1011.91
2022-08-03T09:08:44.945Z,1011.89
2022-08-03T09:20:03.190Z,1011.95
2022-08-03T09:25:39.115Z,1011.81
2022-08-03T09:28:58.799Z,1011.81
2022-08-03T09:34:07.881Z,1011.82
2022-08-03T09:36:52.398Z,1011.82
2022-08-03T09:42:27.602Z,1011.80
2022-08-03T09:48:02.882Z,1011.77
2022-08-03T09:53:38.818Z,1011.76
2022-08-03T09:56:36.899Z,1011.70
2022-08-03T10:02:12.585Z,1011.65
2022-08-03T10:07:47.965Z,1011.53
2022-08-03T10:13:26.378Z,1011.56
2022-08-03T10:21:52.547Z,1011.49
2022-08-03T10:27:27.876Z,1011.43
2022-08-03T10:33:03.278Z,1011.40
2022-08-03T10:38:39.997Z,1011.43
2022-08-03T10:41:26.118Z,1011.34
2022-08-03T10:47:01.742Z,1011.32
2022-08-03T10:52:41.325Z,1011.21
2022-08-03T10:58:30.335Z,1011.23
2022-08-03T11:04:03.841Z,1011.16
2022-08-03T11:06:50.431Z,1011.13
2022-08-03T11:12:31.521Z,1011.14
2022-08-03T11:18:07.590Z,1011.11
2022-08-03T11:24:04.259Z,1011.05
2022-08-03T11:26:41.359Z,1011.02
2022-08-03T11:32:19.478Z,1011.04
2022-08-03T11:38:03.045Z,1010.98
2022-08-03T11:43:40.370Z,1011.01
2022-08-03T11:49:16.093Z,1010.90
2022-08-03T11:54:51.513Z,1010.85
2022-08-03T11:58:57.908Z,1010.85
2022-08-03T12:06:21.381Z,1010.80
2022-08-03T12:09:06.290Z,1010.79
2022-08-03T12:14:50.424Z,1010.75
2022-08-03T12:17:36.082Z,1010.73
2022-08-03T12:23:11.414Z,1010.70
2022-08-03T12:28:49.615Z,1010.63
2022-08-03T12:34:25.352Z,1010.58
2022-08-03T12:37:22.179Z,1010.55
2022-08-03T12:42:58.365Z,1010.53
2022-08-03T12:48:33.948Z,1010.48
2022-08-03T12:54:09.495Z,1010.44
2022-08-03T12:59:49.883Z,1010.33
2022-08-03T13:05:29.231Z,1010.30
2022-08-03T13:08:13.771Z,1010.31
2022-08-03T13:13:49.072Z,1010.29
2022-08-03T13:19:24.472Z,1010.19
2022-08-03T13:24:59.802Z,1010.21
2022-08-03T13:28:04.322Z,1010.15
2022-08-03T13:33:28.610Z,1010.12
2022-08-03T13:39:05.464Z,1010.12
2022-08-03T13:44:52.519Z,1010.09
2022-08-03T13:47:37.471Z,1010.03
2022-08-03T13:53:12.976Z,1009.92
2022-08-03T13:58:48.257Z,1009.83
2022-08-03T14:04:23.743Z,1009.87
2022-08-03T14:09:59.413Z,1009.83
2022-08-03T14:15:37.436Z,1009.76
2022-08-03T14:18:27.597Z,1009.78
2022-08-03T14:24:06.852Z,1009.67
2022-08-03T14:29:42.181Z,1009.67
2022-08-03T14:35:17.722Z,1009.62
2022-08-03T14:38:02.304Z,1009.63
2022-08-03T14:43:37.644Z,1009.64
2022-08-03T14:50:37.748Z,1009.58
2022-08-03T14:54:57.278Z,1009.56
2022-08-03T14:57:41.947Z,1009.54
2022-08-03T15:03:17.594Z,1009.45
2022-08-03T15:09:21.106Z,1009.42
2022-08-03T15:14:38.004Z,1009.34
2022-08-03T15:17:27.036Z,1009.37
2022-08-03T15:23:03.853Z,1009.34
2022-08-03T15:28:39.176Z,1009.35
2022-08-03T15:34:14.442Z,1009.32
2022-08-03T15:39:59.519Z,1009.32
2022-08-03T15:45:37.106Z,1009.38
2022-08-03T15:48:21.712Z,1009.39
2022-08-03T15:54:05.953Z,1009.34
2022-08-03T15:59:41.349Z,1009.33
2022-08-03T16:05:16.619Z,1009.35
2022-08-03T16:08:03.846Z,1009.35
2022-08-03T16:10:49.758Z,1009.35
2022-08-03T16:16:28.192Z,1009.31
2022-08-03T16:22:03.587Z,1009.16
2022-08-03T16:28:00.375Z,1009.10
2022-08-03T16:33:23.219Z,1009.17
2022-08-03T16:38:58.424Z,1009.23
2022-08-03T16:47:24.488Z,1009.22
2022-08-03T16:52:59.986Z,1009.24
2022-08-03T16:58:42.515Z,1009.26
2022-08-03T17:04:19.598Z,1009.32
2022-08-03T17:09:56.285Z,1009.37
2022-08-03T17:15:38.297Z,1009.48
2022-08-03T17:18:26.958Z,1009.51
2022-08-03T17:24:04.695Z,1009.51
2022-08-03T17:29:48.961Z,1009.51
2022-08-03T17:35:24.336Z,1009.54
2022-08-03T17:38:22.450Z,1009.51
2022-08-03T17:44:15.173Z,1009.52
2022-08-03T17:49:46.537Z,1009.56
2022-08-03T17:55:55.441Z,1009.56
2022-08-03T17:58:15.390Z,1009.62
2022-08-03T18:03:58.312Z,1009.62
2022-08-03T18:06:55.784Z,1009.61
2022-08-03T18:10:04.239Z,1009.64
2022-08-03T18:15:24.656Z,1009.66
2022-08-03T18:18:10.881Z,1009.68
2022-08-03T18:23:50.315Z,1009.64
2022-08-03T18:35:07.858Z,1009.66
2022-08-03T18:38:01.337Z,1009.68
2022-08-03T18:43:46.252Z,1009.77
2022-08-03T18:49:20.966Z,1009.77
2022-08-03T18:55:02.388Z,1009.78
2022-08-03T18:57:50.226Z,1009.77
2022-08-03T19:03:42.714Z,1009.83
2022-08-03T19:09:10.755Z,1009.89
2022-08-03T19:14:46.161Z,1009.85
2022-08-03T19:17:30.667Z,1009.88
2022-08-03T19:23:06.551Z,1009.99
2022-08-03T19:28:42.018Z,1009.98
2022-08-03T19:34:18.211Z,1010.03
2022-08-03T19:39:56.367Z,1009.99
2022-08-03T19:46:04.950Z,1010.02
2022-08-03T19:48:25.618Z,1010.01
2022-08-03T19:54:02.487Z,1010.03
2022-08-03T19:59:49.970Z,1010.01
2022-08-03T20:05:22.519Z,1010.01
2022-08-03T20:08:07.082Z,1009.99
2022-08-03T20:13:45.195Z,1009.98
2022-08-03T20:19:24.533Z,1009.96
2022-08-03T20:25:08.785Z,1009.95
2022-08-03T20:28:06.990Z,1009.94
2022-08-03T20:33:46.739Z,1009.93
2022-08-03T20:39:23.946Z,1009.90
2022-08-03T20:45:05.576Z,1009.90
2022-08-03T20:47:54.923Z,1009.93
2022-08-03T20:53:57.479Z,1010.00
2022-08-03T20:59:18.863Z,1010.01
2022-08-03T21:04:54.804Z,1010.02
2022-08-03T21:07:45.686Z,1010.06
2022-08-03T21:13:24.528Z,1010.03
2022-08-03T21:19:01.889Z,1010.08
2022-08-03T21:24:38.225Z,1010.09
2022-08-03T21:30:15.647Z,1010.08
2022-08-03T21:35:51.108Z,1010.05
2022-08-03T21:38:37.214Z,1010.05
2022-08-03T21:44:13.438Z,1010.02
2022-08-03T21:50:05.703Z,1009.98
2022-08-03T21:55:32.907Z,1009.97
2022-08-03T21:58:17.394Z,1010.07
2022-08-03T22:03:53.850Z,1010.02
2022-08-03T22:09:29.658Z,1010.06
2022-08-03T22:15:05.074Z,1010.15
2022-08-03T22:17:54.796Z,1010.19
2022-08-03T22:23:33.828Z,1010.18
2022-08-03T22:29:10.157Z,1010.17
2022-08-03T22:34:45.489Z,1010.24
2022-08-03T22:37:30.885Z,1010.21
2022-08-03T22:43:06.558Z,1010.29
2022-08-03T22:48:45.795Z,1010.31
2022-08-03T22:54:21.376Z,1010.32
2022-08-03T23:00:00.822Z,1010.31
2022-08-03T23:06:00.772Z,1010.34
2022-08-03T23:08:29.605Z,1010.31
2022-08-03T23:14:04.949Z,1010.31
2022-08-03T23:19:44.669Z,1010.34
2022-08-03T23:25:20.207Z,1010.32
2022-08-03T23:28:08.545Z,1010.30
2022-08-03T23:33:44.765Z,1010.30
2022-08-03T23:39:21.269Z,1010.29
2022-08-03T23:44:56.665Z,1010.26
2022-08-03T23:47:46.820Z,1010.25
2022-08-03T23:53:23.115Z,1010.27
2022-08-03T23:58:58.446Z,1010.30
